Time;durP1;ratioP1;P1;durP2;ratioP2;P2;SDS_P1;SDS_P2;PMS_P1;PMS_P2;Temp;Humidity;BMP_temperature;BMP_pressure;BME280_temperature;BME280_humidity;BME280_pressure;Samples;Min_cycle;Max_cycle;Signal;HPM_P1;HPM_P2
2020/12/31 00:00:04;;;;;;;30.50;18.20;;;;;;;3.45;91.03;100123.00;6246070;28;20047;-71
2020/12/31 00:03:05;;;;;;;30.30;18.50;;;;;;;3.35;90.19;100119.88;6246237;28;20065;-71
2020/12/31 00:06:06;;;;;;;35.30;18.00;;;;;;;3.19;91.41;100114.38;6245998;28;20085;-71
2020/12/31 00:09:08;;;;;;;35.03;19.55;;;;;;;3.18;91.44;100117.88;6245635;28;20045;-71
2020/12/31 00:12:09;;;;;;;31.40;18.60;;;;;;;3.26;91.30;100117.59;6246508;28;20054;-71
2020/12/31 00:15:09;;;;;;;32.15;18.33;;;;;;;3.09;91.30;100118.19;6246353;28;20055;-71
2020/12/31 00:18:10;;;;;;;37.63;21.30;;;;;;;2.97;91.27;100115.97;6245921;28;20045;-71
2020/12/31 00:21:11;;;;;;;38.45;20.27;;;;;;;3.07;90.99;100119.97;6245849;28;20461;-71
2020/12/31 00:24:13;;;;;;;31.27;19.27;;;;;;;2.97;91.40;100121.16;6245799;28;20107;-72
2020/12/31 00:27:14;;;;;;;35.85;19.48;;;;;;;2.94;91.59;100118.66;6245858;28;20056;-71
2020/12/31 00:30:16;;;;;;;36.67;20.88;;;;;;;2.98;91.57;100126.28;6245749;28;20049;-72
2020/12/31 00:33:19;;;;;;;41.38;22.50;;;;;;;2.83;91.82;100116.41;6247611;28;20092;-71
2020/12/31 00:36:20;;;;;;;44.25;21.17;;;;;;;2.86;92.17;100120.63;6250418;28;20107;-71
2020/12/31 00:39:22;;;;;;;35.88;20.48;;;;;;;2.77;91.79;100120.06;6250380;28;20387;-71
2020/12/31 00:42:23;;;;;;;38.33;21.98;;;;;;;2.85;91.98;100124.13;6250863;28;20136;-71
2020/12/31 00:45:24;;;;;;;37.60;21.90;;;;;;;2.76;92.13;100118.34;6250834;28;20053;-71
2020/12/31 00:48:25;;;;;;;40.03;22.15;;;;;;;2.73;92.27;100121.03;6250408;28;20413;-71
2020/12/31 00:51:26;;;;;;;42.75;22.38;;;;;;;2.79;92.25;100120.00;6249983;28;20054;-71
2020/12/31 00:54:28;;;;;;;39.22;22.23;;;;;;;2.72;92.66;100119.31;6250700;28;20513;-71
2020/12/31 00:57:29;;;;;;;45.28;22.60;;;;;;;2.76;92.42;100118.34;6249893;28;20076;-71
2020/12/31 01:00:30;;;;;;;41.70;23.00;;;;;;;2.78;92.54;100120.91;6250085;28;20049;-71
2020/12/31 01:03:31;;;;;;;40.20;22.45;;;;;;;2.83;92.50;100121.59;6250245;28;20057;-71
2020/12/31 01:06:36;;;;;;;43.25;22.40;;;;;;;2.86;92.37;100126.72;6249989;28;20045;-71
2020/12/31 01:09:37;;;;;;;44.95;22.15;;;;;;;2.87;92.61;100131.00;6249514;28;20053;-71
2020/12/31 01:12:38;;;;;;;41.40;22.55;;;;;;;2.85;92.55;100132.78;6271144;22;20576;-72
2020/12/31 01:15:39;;;;;;;43.10;21.02;;;;;;;2.90;92.55;100133.47;6249044;28;20042;-73
2020/12/31 01:18:40;;;;;;;38.70;22.75;;;;;;;2.84;92.44;100131.06;6241759;28;20092;-73
2020/12/31 01:21:44;;;;;;;44.00;21.38;;;;;;;2.82;92.72;100137.19;6237151;28;20072;-73
2020/12/31 01:24:46;;;;;;;40.53;21.35;;;;;;;2.82;92.98;100137.19;6249744;28;20049;-73
2020/12/31 01:27:47;;;;;;;42.80;20.98;;;;;;;2.75;91.95;100132.22;6249450;28;20049;-73
2020/12/31 01:30:47;;;;;;;46.72;22.52;;;;;;;2.74;92.61;100130.53;6249225;28;20139;-73
2020/12/31 01:33:48;;;;;;;41.40;21.73;;;;;;;2.81;92.37;100136.34;6249377;28;20049;-73
2020/12/31 01:36:52;;;;;;;38.85;19.95;;;;;;;2.75;92.06;100132.22;6249016;28;20056;-72
2020/12/31 01:39:54;;;;;;;40.72;19.65;;;;;;;2.75;92.32;100132.22;6248760;28;20064;-73
2020/12/31 01:42:54;;;;;;;43.85;20.55;;;;;;;2.63;92.24;100129.13;6249165;28;20053;-73
2020/12/31 01:45:55;;;;;;;43.83;19.83;;;;;;;2.61;92.78;100129.19;6248696;28;20060;-73
2020/12/31 01:48:56;;;;;;;36.55;18.48;;;;;;;2.64;92.36;100126.53;6248960;28;20068;-73
2020/12/31 01:51:58;;;;;;;35.38;19.60;;;;;;;2.53;92.44;100134.59;6249076;28;20080;-73
2020/12/31 01:55:02;;;;;;;35.97;18.63;;;;;;;2.44;92.49;100141.81;6249161;28;20056;-71
2020/12/31 01:58:03;;;;;;;38.40;20.40;;;;;;;2.40;92.79;100141.06;6248599;28;20052;-71
2020/12/31 02:01:04;;;;;;;33.92;18.52;;;;;;;2.37;92.52;100132.53;6248697;28;20050;-72
2020/12/31 02:04:05;;;;;;;40.92;19.83;;;;;;;2.27;93.44;100138.00;6248751;28;20529;-71
2020/12/31 02:07:06;;;;;;;34.58;18.02;;;;;;;2.28;93.07;100133.66;6248362;28;20059;-72
2020/12/31 02:10:08;;;;;;;37.88;19.38;;;;;;;2.22;92.62;100133.81;6248215;28;20049;-71
2020/12/31 02:13:09;;;;;;;36.95;19.50;;;;;;;2.13;93.82;100136.66;6248685;28;20057;-72
2020/12/31 02:16:11;;;;;;;39.15;19.25;;;;;;;2.14;93.89;100133.22;6248232;28;20057;-71
2020/12/31 02:19:14;;;;;;;36.92;18.67;;;;;;;2.13;93.64;100136.66;6248087;28;20445;-71
2020/12/31 02:22:16;;;;;;;40.20;19.13;;;;;;;2.06;93.77;100130.84;6248210;28;20465;-71
2020/12/31 02:25:16;;;;;;;37.35;19.60;;;;;;;2.10;93.79;100131.59;6248416;28;20498;-73
2020/12/31 02:28:17;;;;;;;37.78;18.08;;;;;;;2.07;93.87;100139.44;6248091;28;20049;-72
2020/12/31 02:31:19;;;;;;;40.22;18.45;;;;;;;2.16;93.47;100129.66;6247681;28;20053;-73
2020/12/31 02:34:20;;;;;;;35.28;18.63;;;;;;;2.08;92.65;100133.38;6248273;28;20053;-71
2020/12/31 02:37:21;;;;;;;36.38;17.33;;;;;;;2.00;93.61;100129.28;6247403;28;20473;-71
2020/12/31 02:40:22;;;;;;;38.65;18.58;;;;;;;1.98;93.51;100136.22;6247470;28;20402;-71
2020/12/31 02:43:23;;;;;;;40.85;18.05;;;;;;;1.93;93.87;100129.47;6247865;28;20053;-73
2020/12/31 02:46:24;;;;;;;34.53;17.42;;;;;;;1.97;93.82;100131.94;6247731;28;20057;-71
2020/12/31 02:49:24;;;;;;;38.28;17.92;;;;;;;1.91;93.66;100126.94;6247304;28;20700;-73
2020/12/31 02:52:26;;;;;;;32.80;17.95;;;;;;;1.98;93.93;100131.03;6247724;28;20050;-71
2020/12/31 02:55:27;;;;;;;36.75;17.20;;;;;;;2.03;93.88;100131.75;6247029;28;20111;-71
2020/12/31 02:58:28;;;;;;;39.47;18.33;;;;;;;1.99;94.14;100134.47;6247098;28;20387;-71
2020/12/31 03:01:29;;;;;;;31.95;16.45;;;;;;;1.92;93.53;100133.81;6247237;28;20076;-73
2020/12/31 03:04:29;;;;;;;37.08;16.30;;;;;;;1.94;92.97;100131.16;6246934;28;20207;-71
2020/12/31 03:07:31;;;;;;;35.20;15.95;;;;;;;1.94;93.31;100133.75;6247026;28;20485;-71
2020/12/31 03:10:32;;;;;;;36.10;16.42;;;;;;;1.95;94.10;100128.56;6246815;28;20135;-74
2020/12/31 03:13:33;;;;;;;31.38;17.38;;;;;;;1.97;93.82;100133.69;6246851;28;20494;-73
2020/12/31 03:16:34;;;;;;;34.38;17.13;;;;;;;2.05;93.52;100131.72;6246827;28;20140;-72
2020/12/31 03:19:34;;;;;;;35.10;16.98;;;;;;;2.05;93.75;100130.88;6246850;28;20077;-71
2020/12/31 03:22:36;;;;;;;34.25;16.88;;;;;;;2.13;93.60;100129.75;6246658;28;20099;-73
2020/12/31 03:25:38;;;;;;;31.92;15.45;;;;;;;2.13;93.68;100127.16;6247244;28;20057;-72
2020/12/31 03:28:38;;;;;;;34.60;15.85;;;;;;;2.15;93.70;100125.38;6246095;28;20048;-72
2020/12/31 03:31:39;;;;;;;33.22;16.17;;;;;;;2.22;92.61;100128.63;6246777;28;20052;-72
2020/12/31 03:34:40;;;;;;;34.78;15.82;;;;;;;2.28;92.82;100118.94;6246918;28;20053;-72
2020/12/31 03:37:42;;;;;;;29.80;14.57;;;;;;;2.33;92.19;100120.56;6246372;28;20386;-73
2020/12/31 03:40:43;;;;;;;31.50;14.30;;;;;;;2.38;92.19;100118.69;6246150;28;20049;-73
2020/12/31 03:43:45;;;;;;;30.20;14.77;;;;;;;2.41;92.10;100116.84;6246689;28;20484;-72
2020/12/31 03:46:45;;;;;;;26.55;14.43;;;;;;;2.33;92.29;100115.38;6246460;28;20057;-73
2020/12/31 03:49:46;;;;;;;29.27;14.75;;;;;;;2.36;92.14;100104.88;6246362;28;20068;-73
2020/12/31 03:52:48;;;;;;;23.50;13.07;;;;;;;2.33;92.36;100105.84;6246606;28;20061;-73
2020/12/31 03:55:49;;;;;;;21.30;11.88;;;;;;;2.48;90.70;100107.13;6246597;28;20049;-72
2020/12/31 03:58:50;;;;;;;22.90;11.70;;;;;;;2.41;91.02;100103.88;6245703;28;20051;-73
2020/12/31 04:01:51;;;;;;;22.73;11.90;;;;;;;2.49;91.23;100106.22;6246489;28;20085;-72
2020/12/31 04:04:51;;;;;;;20.58;11.38;;;;;;;2.46;90.82;100102.00;6246032;28;20056;-73
2020/12/31 04:07:53;;;;;;;23.85;10.63;;;;;;;2.57;90.14;100106.00;6248794;28;20076;-72
2020/12/31 04:10:54;;;;;;;19.13;10.38;;;;;;;2.63;89.82;100093.66;6251100;28;20053;-73
2020/12/31 04:13:55;;;;;;;19.02;9.90;;;;;;;2.60;90.24;100098.97;6251274;28;20489;-73
2020/12/31 04:16:56;;;;;;;18.13;8.70;;;;;;;2.60;89.44;100091.19;6251084;28;20050;-73
2020/12/31 04:19:56;;;;;;;16.65;8.73;;;;;;;2.59;89.92;100092.09;6251063;28;20052;-73
2020/12/31 04:22:58;;;;;;;19.10;9.38;;;;;;;2.76;89.22;100091.53;6251138;28;20058;-73
2020/12/31 04:25:59;;;;;;;19.00;9.20;;;;;;;2.71;89.43;100088.25;6249094;28;20053;-73
2020/12/31 04:29:00;;;;;;;14.70;8.85;;;;;;;2.72;89.83;100089.94;6250597;28;20127;-73
2020/12/31 04:32:01;;;;;;;15.13;8.52;;;;;;;2.69;89.27;100087.47;6234123;28;20442;-73
2020/12/31 04:35:01;;;;;;;18.73;9.13;;;;;;;2.83;89.74;100082.69;6239993;28;20073;-73
2020/12/31 04:38:03;;;;;;;13.57;7.85;;;;;;;2.78;88.38;100082.84;6249291;28;20142;-74
2020/12/31 04:41:04;;;;;;;14.45;8.25;;;;;;;2.85;89.06;100085.22;6250497;28;20057;-73
2020/12/31 04:44:05;;;;;;;13.38;7.78;;;;;;;2.80;88.94;100080.19;6250730;28;20137;-73
2020/12/31 04:47:06;;;;;;;16.08;7.57;;;;;;;2.92;88.55;100084.13;6250563;28;20593;-73
2020/12/31 04:50:09;;;;;;;15.48;7.93;;;;;;;2.82;88.31;100091.38;6250263;28;20149;-73
2020/12/31 04:53:11;;;;;;;15.73;7.90;;;;;;;2.81;88.00;100092.25;6250377;28;20053;-70
2020/12/31 04:56:12;;;;;;;14.15;7.03;;;;;;;2.84;88.88;100099.09;6250226;28;20463;-73
2020/12/31 04:59:13;;;;;;;13.50;7.70;;;;;;;2.95;87.95;100095.28;6249911;28;20092;-73
2020/12/31 05:02:14;;;;;;;12.75;7.32;;;;;;;2.96;88.14;100094.38;6250357;28;20053;-73
2020/12/31 05:05:15;;;;;;;18.00;8.13;;;;;;;2.91;87.36;100098.84;6249855;28;20513;-73
2020/12/31 05:08:18;;;;;;;16.15;6.93;;;;;;;3.00;86.57;100095.13;6250004;28;20075;-72
2020/12/31 05:11:19;;;;;;;11.43;6.57;;;;;;;2.84;87.30;100101.69;6249455;28;20103;-73
2020/12/31 05:14:30;;;;;;;14.50;6.38;;;;;;;2.89;86.58;100097.19;6250284;28;20541;-73
2020/12/31 05:17:31;;;;;;;12.68;6.63;;;;;;;2.93;86.52;100094.44;6249493;28;20068;-73
2020/12/31 05:20:32;;;;;;;13.63;6.90;;;;;;;2.83;86.79;100102.59;6248808;28;20053;-72
2020/12/31 05:23:33;;;;;;;12.68;6.45;;;;;;;2.83;87.92;100098.25;6249698;28;20433;-73
2020/12/31 05:26:34;;;;;;;12.98;6.15;;;;;;;2.80;87.46;100099.19;6249523;28;20057;-72
2020/12/31 05:29:36;;;;;;;10.98;6.00;;;;;;;2.77;87.77;100101.91;6249341;28;20046;-71
2020/12/31 05:32:39;;;;;;;13.10;6.05;;;;;;;2.91;88.80;100096.25;6249494;28;20445;-72
2020/12/31 05:35:40;;;;;;;10.95;6.18;;;;;;;2.79;88.54;100099.25;6249323;28;20053;-73
2020/12/31 05:38:42;;;;;;;15.75;6.38;;;;;;;2.86;88.52;100090.38;6248753;28;20049;-73
2020/12/31 05:41:43;;;;;;;11.90;6.38;;;;;;;2.81;89.42;100097.44;6249618;28;20061;-73
2020/12/31 05:44:58;;;;;;;10.98;6.30;;;;;;;2.81;89.78;100097.44;6249318;28;20057;-73
2020/12/31 05:47:59;;;;;;;10.27;5.85;;;;;;;2.70;90.87;100107.31;6249264;28;20041;-72
2020/12/31 05:51:00;;;;;;;12.23;5.45;;;;;;;2.68;91.89;100107.38;6248805;28;20049;-73
2020/12/31 05:54:06;;;;;;;12.55;6.05;;;;;;;2.66;92.22;100113.50;6249014;28;20438;-73
2020/12/31 05:57:11;;;;;;;12.48;6.72;;;;;;;2.62;93.21;100106.69;6248858;28;20098;-73
2020/12/31 06:00:14;;;;;;;9.68;6.03;;;;;;;2.61;93.28;100111.03;6248615;28;20052;-73
2020/12/31 06:03:33;;;;;;;11.38;6.13;;;;;;;2.61;93.39;100112.78;6248628;28;20049;-72
2020/12/31 06:06:47;;;;;;;9.80;6.05;;;;;;;2.62;93.74;100107.53;6248513;28;20473;-73
2020/12/31 06:10:02;;;;;;;10.10;5.90;;;;;;;2.54;93.86;100114.72;6248301;28;20418;-73
2020/12/31 06:13:04;;;;;;;10.55;6.55;;;;;;;2.52;94.32;100111.31;6248794;28;20053;-73
2020/12/31 06:16:05;;;;;;;12.23;6.80;;;;;;;2.46;95.22;100111.53;6248217;28;20088;-73
2020/12/31 06:19:28;;;;;;;11.15;6.72;;;;;;;2.60;94.41;100111.94;6248288;28;20128;-73
2020/12/31 06:22:35;;;;;;;14.25;7.43;;;;;;;2.46;94.69;100109.78;6248340;28;20085;-73
2020/12/31 06:25:39;;;;;;;13.13;8.07;;;;;;;2.40;94.84;100114.28;6248623;28;20132;-73
2020/12/31 06:28:45;;;;;;;12.50;7.45;;;;;;;2.39;95.51;100117.78;6247579;28;20046;-72
2020/12/31 06:31:51;;;;;;;12.95;7.15;;;;;;;2.39;95.74;100105.66;6248320;28;20532;-72
2020/12/31 06:35:01;;;;;;;12.88;7.80;;;;;;;2.32;96.17;100111.94;6247816;28;20046;-72
2020/12/31 06:38:02;;;;;;;16.55;7.85;;;;;;;2.49;96.10;100114.84;6247916;28;20052;-72
2020/12/31 06:41:06;;;;;;;12.30;6.82;;;;;;;2.43;96.73;100119.38;6247582;28;20132;-73
2020/12/31 06:44:09;;;;;;;16.35;7.88;;;;;;;2.42;96.81;100113.34;6247946;28;20045;-72
2020/12/31 06:47:09;;;;;;;13.75;7.82;;;;;;;2.50;96.58;100119.16;6247628;28;20045;-72
2020/12/31 06:50:10;;;;;;;14.57;7.70;;;;;;;2.40;96.65;100115.13;6247613;28;20467;-72
2020/12/31 06:53:30;;;;;;;15.07;8.23;;;;;;;2.44;97.98;100126.25;6247656;28;20053;-73
2020/12/31 06:56:42;;;;;;;13.52;8.00;;;;;;;2.49;96.84;100117.44;6247663;28;20046;-73
2020/12/31 06:59:44;;;;;;;12.38;7.28;;;;;;;2.41;96.84;100121.19;6247152;28;20088;-72
2020/12/31 07:02:45;;;;;;;13.35;7.68;;;;;;;2.36;97.63;100117.84;6247310;28;20499;-72
2020/12/31 07:05:46;;;;;;;14.15;7.53;;;;;;;2.39;96.96;100120.38;6247474;28;20060;-72
2020/12/31 07:08:47;;;;;;;15.43;8.20;;;;;;;2.39;97.33;100130.75;6241374;28;20054;-72
2020/12/31 07:14:53;;;;;;;14.35;7.70;;;;;;;2.37;97.37;100130.78;6240120;22;20049;-70
2020/12/31 07:17:55;;;;;;;15.02;8.38;;;;;;;2.30;97.98;100121.47;6222501;28;20053;-71
2020/12/31 07:20:56;;;;;;;15.45;8.65;;;;;;;2.38;97.76;100123.88;6222040;28;20053;-71
2020/12/31 07:23:56;;;;;;;13.60;7.63;;;;;;;2.46;96.85;100127.94;6222723;28;20498;-71
2020/12/31 07:26:59;;;;;;;13.80;8.27;;;;;;;2.36;96.63;100125.63;6222189;28;20054;-70
2020/12/31 07:30:19;;;;;;;13.55;7.15;;;;;;;2.42;96.79;100128.91;6222344;28;20096;-71
2020/12/31 07:33:36;;;;;;;12.38;7.60;;;;;;;2.42;97.20;100126.31;6219722;28;20046;-70
2020/12/31 07:36:37;;;;;;;12.25;7.57;;;;;;;2.35;97.18;100127.38;6238441;28;20053;-70
2020/12/31 07:39:37;;;;;;;12.70;7.35;;;;;;;2.31;96.91;100137.88;6246362;28;20045;-70
2020/12/31 07:42:38;;;;;;;12.93;7.82;;;;;;;2.35;97.55;100137.75;6246336;28;20502;-71
2020/12/31 07:45:45;;;;;;;13.20;7.75;;;;;;;2.36;96.46;100133.41;6246688;28;20075;-71
2020/12/31 07:48:46;;;;;;;16.08;8.52;;;;;;;2.46;96.73;100133.13;6246041;28;20042;-70
2020/12/31 07:51:47;;;;;;;14.15;7.95;;;;;;;2.40;97.66;100142.81;6246694;28;20060;-70
2020/12/31 07:54:48;;;;;;;12.27;7.43;;;;;;;2.31;97.07;100136.13;6246409;28;20561;-70
2020/12/31 07:57:49;;;;;;;11.30;6.95;;;;;;;2.40;96.65;100142.81;6246259;28;20084;-71
2020/12/31 08:00:58;;;;;;;12.68;7.13;;;;;;;2.35;96.76;100140.34;6246140;28;20134;-71
2020/12/31 08:04:09;;;;;;;16.20;8.07;;;;;;;2.30;96.72;100137.03;6226484;28;20049;-71
2020/12/31 08:07:16;;;;;;;12.15;6.95;;;;;;;2.26;96.76;100141.47;6221792;28;20053;-71
2020/12/31 08:10:17;;;;;;;12.52;7.55;;;;;;;2.31;97.11;100137.88;6217028;28;20042;-70
2020/12/31 08:13:18;;;;;;;13.10;7.05;;;;;;;2.42;96.34;100143.63;6221573;28;20054;-70
2020/12/31 08:16:20;;;;;;;12.88;7.97;;;;;;;2.36;96.24;100141.19;6221571;28;20053;-70
2020/12/31 08:19:21;;;;;;;11.48;7.05;;;;;;;2.32;96.54;100137.88;6221159;28;20053;-71
2020/12/31 08:22:33;;;;;;;12.63;7.15;;;;;;;2.28;96.41;100141.44;6221863;28;20046;-70
2020/12/31 08:25:38;;;;;;;16.95;7.55;;;;;;;2.35;97.27;100144.69;6207433;28;20122;-71
2020/12/31 08:28:39;;;;;;;14.63;7.20;;;;;;;2.32;97.33;100142.16;6196299;28;20592;-70
2020/12/31 08:31:41;;;;;;;13.27;7.60;;;;;;;2.36;96.81;100139.44;6199809;28;20108;-70
2020/12/31 08:34:44;;;;;;;15.40;7.22;;;;;;;2.40;95.91;100148.00;6221642;28;20072;-70
2020/12/31 08:37:47;;;;;;;13.32;7.22;;;;;;;2.39;96.14;100148.88;6221089;28;20108;-71
2020/12/31 08:40:50;;;;;;;15.00;7.38;;;;;;;2.46;95.89;100150.41;6221010;28;20104;-70
2020/12/31 08:43:52;;;;;;;13.40;7.53;;;;;;;2.41;95.14;100149.72;6221220;28;20061;-70
2020/12/31 08:46:54;;;;;;;11.27;7.25;;;;;;;2.36;96.46;100143.78;6221254;28;20057;-71
2020/12/31 08:49:57;;;;;;;12.43;7.15;;;;;;;2.47;96.01;100140.00;6218427;28;20046;-70
2020/12/31 08:53:01;;;;;;;14.63;7.10;;;;;;;2.45;95.80;100141.78;6197200;28;20050;-70
2020/12/31 08:56:11;;;;;;;12.27;6.95;;;;;;;2.34;96.92;100138.66;6200883;28;20515;-70
2020/12/31 08:59:13;;;;;;;12.35;7.15;;;;;;;2.44;96.82;100137.47;6201205;28;20499;-70
2020/12/31 09:02:15;;;;;;;13.55;7.07;;;;;;;2.43;96.43;100148.75;6210870;28;20050;-70
2020/12/31 09:05:17;;;;;;;13.57;7.75;;;;;;;2.47;96.10;100152.97;6225389;28;20053;-70
2020/12/31 09:08:18;;;;;;;13.00;7.60;;;;;;;2.49;96.40;100147.72;6215808;28;20077;-70
2020/12/31 09:11:25;;;;;;;15.27;7.43;;;;;;;2.37;96.78;100151.53;6201403;28;20046;-70
2020/12/31 09:14:26;;;;;;;10.75;6.72;;;;;;;2.44;97.65;100144.41;6201096;28;20220;-70
2020/12/31 09:17:32;;;;;;;13.65;7.38;;;;;;;2.48;97.06;100148.63;6200900;28;20058;-71
2020/12/31 09:20:33;;;;;;;13.75;7.88;;;;;;;2.40;97.86;100148.84;6200861;28;20050;-70
2020/12/31 09:23:34;;;;;;;16.40;8.95;;;;;;;2.61;98.18;100142.16;6200954;28;20065;-70
2020/12/31 09:26:35;;;;;;;15.50;8.35;;;;;;;2.49;96.89;100145.97;6200799;28;20058;-71
2020/12/31 09:29:36;;;;;;;12.95;8.25;;;;;;;2.57;97.20;100150.94;6200304;28;20078;-72
2020/12/31 09:32:38;;;;;;;14.88;8.00;;;;;;;2.52;97.04;100145.03;6215364;28;20084;-71
2020/12/31 09:35:39;;;;;;;12.52;6.95;;;;;;;2.56;97.21;100146.66;6224833;28;20400;-71
2020/12/31 09:38:40;;;;;;;13.20;7.90;;;;;;;2.51;97.70;100156.31;6224297;28;20042;-71
2020/12/31 09:41:41;;;;;;;11.75;7.85;;;;;;;2.51;97.77;100153.72;6224915;28;20061;-71
2020/12/31 09:44:42;;;;;;;10.80;6.55;;;;;;;2.65;97.25;100161.09;6224657;28;20137;-71
2020/12/31 09:47:44;;;;;;;12.90;7.32;;;;;;;2.58;97.03;100157.81;6224201;28;20058;-71
2020/12/31 09:50:44;;;;;;;25.92;8.10;;;;;;;2.60;96.82;100160.38;6223562;28;20410;-71
2020/12/31 09:53:46;;;;;;;17.63;8.43;;;;;;;2.60;97.35;100157.78;6224755;28;20058;-72
2020/12/31 09:56:47;;;;;;;12.73;7.90;;;;;;;2.57;97.68;100158.72;6224280;28;20491;-71
2020/12/31 09:59:47;;;;;;;13.80;7.60;;;;;;;2.62;97.65;100156.81;6224419;28;20049;-71
2020/12/31 10:02:49;;;;;;;13.38;8.00;;;;;;;2.54;97.48;100154.50;6224104;28;20056;-71
2020/12/31 10:05:50;;;;;;;14.65;8.45;;;;;;;2.59;97.42;100154.34;6224070;28;20053;-71
2020/12/31 10:08:51;;;;;;;16.55;8.95;;;;;;;2.53;97.04;100155.34;6223921;28;20053;-71
2020/12/31 10:11:54;;;;;;;16.65;8.50;;;;;;;2.71;97.24;100158.28;6224109;28;20057;-71
2020/12/31 10:14:56;;;;;;;21.27;10.57;;;;;;;2.63;96.72;100152.47;6224116;28;20104;-71
2020/12/31 10:17:58;;;;;;;16.23;8.77;;;;;;;2.52;97.55;100161.44;6223705;28;20129;-72
2020/12/31 10:20:59;;;;;;;17.35;9.77;;;;;;;2.48;98.44;100156.41;6223776;28;20576;-71
2020/12/31 10:23:59;;;;;;;18.27;10.52;;;;;;;2.48;98.19;100154.66;6223005;28;20051;-72
2020/12/31 10:27:00;;;;;;;18.55;9.88;;;;;;;2.53;98.78;100154.50;6223761;28;20046;-72
2020/12/31 10:30:01;;;;;;;16.52;9.30;;;;;;;2.70;97.74;100151.41;6223353;28;20498;-71
2020/12/31 10:33:03;;;;;;;17.98;9.13;;;;;;;2.53;98.01;100146.72;6223643;28;20046;-72
2020/12/31 10:36:04;;;;;;;19.67;9.45;;;;;;;2.56;98.89;100145.81;6223426;28;20053;-71
2020/12/31 10:39:06;;;;;;;16.95;9.23;;;;;;;2.58;98.67;100144.84;6223392;28;20046;-71
2020/12/31 10:42:07;;;;;;;25.55;10.60;;;;;;;2.66;98.42;100145.47;6223484;28;20053;-72
2020/12/31 10:45:08;;;;;;;24.10;11.25;;;;;;;2.55;99.30;100137.19;6223353;28;20050;-71
2020/12/31 10:48:12;;;;;;;20.75;11.25;;;;;;;2.61;99.50;100139.56;6223098;28;20049;-71
2020/12/31 10:51:13;;;;;;;18.88;10.00;;;;;;;2.54;99.43;100141.53;6222890;28;20208;-71
2020/12/31 10:54:13;;;;;;;15.75;9.60;;;;;;;2.61;99.96;100136.97;6223232;28;20531;-71
2020/12/31 10:57:14;;;;;;;20.98;10.40;;;;;;;2.61;100.00;100138.72;6222959;28;20522;-71
2020/12/31 11:00:15;;;;;;;18.40;10.82;;;;;;;2.59;99.98;100135.31;6222421;28;20093;-71
2020/12/31 11:03:17;;;;;;;21.85;11.82;;;;;;;2.69;100.00;100129.81;6214154;28;20133;-71
2020/12/31 11:06:19;;;;;;;22.48;11.85;;;;;;;2.69;99.97;100134.16;6208171;28;20047;-71
2020/12/31 11:09:20;;;;;;;20.05;10.90;;;;;;;2.64;100.00;100126.53;6220129;28;20129;-71
2020/12/31 11:12:21;;;;;;;21.83;10.68;;;;;;;2.75;99.65;100126.19;6222648;28;20060;-71
2020/12/31 11:15:22;;;;;;;19.10;10.73;;;;;;;2.72;99.94;100129.69;6222943;28;20096;-71
2020/12/31 11:18:23;;;;;;;19.83;11.68;;;;;;;2.71;99.49;100116.78;6221758;28;20093;-70
2020/12/31 11:21:25;;;;;;;18.38;10.85;;;;;;;2.71;100.00;100119.38;6222318;28;20041;-71
2020/12/31 11:24:25;;;;;;;20.15;11.30;;;;;;;2.76;100.00;100114.91;6222498;28;20058;-70
2020/12/31 11:27:26;;;;;;;21.67;11.32;;;;;;;2.75;100.00;100111.47;6222398;28;20136;-70
2020/12/31 11:30:27;;;;;;;20.13;11.23;;;;;;;2.83;100.00;100111.22;6221796;28;20546;-71
2020/12/31 11:33:29;;;;;;;19.58;11.75;;;;;;;2.88;99.46;100116.28;6222563;28;20495;-71
2020/12/31 11:36:30;;;;;;;18.52;11.23;;;;;;;2.94;99.50;100106.53;6222063;28;20108;-71
2020/12/31 11:39:31;;;;;;;21.70;12.07;;;;;;;2.98;99.24;100104.69;6221877;28;20052;-70
2020/12/31 11:42:33;;;;;;;22.63;11.75;;;;;;;2.91;99.04;100104.06;6222234;28;20129;-71
2020/12/31 11:45:33;;;;;;;21.60;11.50;;;;;;;2.82;99.67;100100.88;6222221;28;20641;-71
2020/12/31 11:48:36;;;;;;;22.30;12.32;;;;;;;2.87;100.00;100105.03;6221968;28;20053;-71
2020/12/31 11:51:37;;;;;;;22.60;12.43;;;;;;;2.90;100.00;100098.88;6222439;28;20049;-71
2020/12/31 11:54:37;;;;;;;21.63;12.38;;;;;;;2.92;100.00;100108.34;6222037;28;20054;-71
2020/12/31 11:57:38;;;;;;;20.63;12.15;;;;;;;2.92;99.14;100095.34;6218120;28;20490;-70
2020/12/31 12:00:40;;;;;;;17.63;10.88;;;;;;;3.01;99.74;100089.88;6220930;28;20135;-71
2020/12/31 12:03:41;;;;;;;18.45;10.90;;;;;;;3.05;98.93;100090.63;6221759;28;20053;-71
2020/12/31 12:06:48;;;;;;;21.25;11.25;;;;;;;2.95;99.37;100094.41;6221503;28;20478;-71
2020/12/31 12:09:48;;;;;;;19.13;11.57;;;;;;;2.97;99.33;100084.81;6221171;28;20045;-71
2020/12/31 12:12:49;;;;;;;15.70;10.25;;;;;;;3.00;98.54;100082.13;6221442;28;20057;-72
2020/12/31 12:15:50;;;;;;;19.80;11.95;;;;;;;2.97;98.53;100085.69;6221677;28;20522;-72
2020/12/31 12:18:52;;;;;;;21.15;11.50;;;;;;;2.98;98.85;100087.38;6221053;28;20046;-71
2020/12/31 12:21:57;;;;;;;17.92;11.40;;;;;;;2.98;99.25;100081.31;6221801;28;20521;-72
2020/12/31 12:25:00;;;;;;;21.90;11.68;;;;;;;3.08;99.42;100080.13;6221559;28;20046;-72
2020/12/31 12:28:01;;;;;;;19.63;11.88;;;;;;;3.09;98.68;100084.44;6222581;28;20662;-72
2020/12/31 12:31:02;;;;;;;20.13;11.45;;;;;;;3.07;99.34;100075.84;6225644;28;20185;-72
2020/12/31 12:34:05;;;;;;;21.00;12.02;;;;;;;3.07;99.33;100075.84;6226680;28;20054;-72
2020/12/31 12:37:06;;;;;;;19.38;11.93;;;;;;;3.09;99.08;100079.25;6225419;28;20095;-72
2020/12/31 12:40:08;;;;;;;21.45;12.32;;;;;;;3.05;98.13;100085.44;6238694;28;20038;-71
2020/12/31 12:43:09;;;;;;;19.60;12.18;;;;;;;3.03;98.54;100084.63;6238416;28;20499;-72
2020/12/31 12:46:13;;;;;;;18.85;11.85;;;;;;;3.02;99.56;100088.97;6245902;28;20084;-71
2020/12/31 12:49:15;;;;;;;15.38;9.77;;;;;;;3.16;97.89;100083.31;6242433;28;20038;-71
2020/12/31 12:52:16;;;;;;;18.35;10.25;;;;;;;3.02;98.62;100081.19;6246544;28;20050;-72
2020/12/31 12:55:17;;;;;;;17.50;11.10;;;;;;;2.91;98.60;100085.88;6250550;28;20055;-71
2020/12/31 12:58:19;;;;;;;15.88;9.65;;;;;;;2.89;99.64;100084.22;6204839;28;20129;-72
2020/12/31 13:01:20;;;;;;;13.02;8.95;;;;;;;2.93;98.65;100076.28;6218867;28;20133;-72
2020/12/31 13:04:22;;;;;;;16.42;8.73;;;;;;;2.93;98.56;100078.03;6225438;28;20103;-71
2020/12/31 13:07:25;;;;;;;15.07;8.75;;;;;;;2.91;98.70;100085.88;6238605;28;20037;-71
2020/12/31 13:10:25;;;;;;;18.55;10.48;;;;;;;2.92;98.77;100077.19;6249901;28;20060;-71
2020/12/31 13:13:26;;;;;;;16.08;9.57;;;;;;;2.99;99.55;100083.00;6250094;28;20045;-73
2020/12/31 13:16:27;;;;;;;19.15;10.02;;;;;;;2.97;99.87;100088.28;6249302;28;20049;-73
2020/12/31 13:19:29;;;;;;;17.67;10.73;;;;;;;3.01;100.00;100081.25;6248499;28;20562;-73
2020/12/31 13:22:30;;;;;;;17.45;10.68;;;;;;;3.04;100.00;100079.41;6249981;28;20049;-73
2020/12/31 13:25:31;;;;;;;17.05;10.25;;;;;;;3.02;100.00;100083.78;6249732;28;20057;-74
2020/12/31 13:28:34;;;;;;;19.30;11.02;;;;;;;3.12;100.00;100084.31;6249374;28;20053;-73
2020/12/31 13:31:35;;;;;;;17.88;10.43;;;;;;;3.10;100.00;100082.69;6226931;28;20053;-72
2020/12/31 13:34:36;;;;;;;18.90;11.45;;;;;;;3.08;100.00;100087.91;6225267;28;20085;-73
2020/12/31 13:37:37;;;;;;;17.33;10.02;;;;;;;3.09;100.00;100088.75;6224671;28;20054;-73
2020/12/31 13:40:39;;;;;;;16.15;9.57;;;;;;;3.13;100.00;100082.56;6224022;28;20505;-77
2020/12/31 13:43:39;;;;;;;22.63;11.43;;;;;;;3.17;100.00;100086.75;6224827;28;20132;-72
2020/12/31 13:46:40;;;;;;;18.33;11.05;;;;;;;3.18;100.00;100085.84;6220963;28;20050;-73
2020/12/31 13:49:42;;;;;;;18.05;10.13;;;;;;;3.19;100.00;100082.38;6239541;28;20045;-73
2020/12/31 13:52:43;;;;;;;16.70;9.50;;;;;;;3.28;100.00;100087.25;6240847;28;20052;-72
2020/12/31 13:55:44;;;;;;;17.83;10.45;;;;;;;3.24;100.00;100085.66;6249222;28;20136;-73
2020/12/31 13:58:45;;;;;;;18.92;11.02;;;;;;;3.31;100.00;100085.38;6247262;28;20045;-73
2020/12/31 14:01:46;;;;;;;19.27;9.88;;;;;;;3.29;100.00;100087.19;6224619;28;20057;-73